createdAt,value
2018-04-11T00:01:45.740Z,96.50
2018-04-11T00:04:13.385Z,96.55
2018-04-11T00:06:40.984Z,97.93
2018-04-11T00:09:08.633Z,98.48
2018-04-11T00:11:36.269Z,98.82
2018-04-11T00:14:03.937Z,98.69
2018-04-11T00:16:31.526Z,97.89
2018-04-11T00:18:59.167Z,97.43
2018-04-11T00:21:26.777Z,97.35
2018-04-11T00:23:54.393Z,97.41
2018-04-11T00:26:21.981Z,97.53
2018-04-11T00:28:49.713Z,97.36
2018-04-11T00:31:17.297Z,97.07
2018-04-11T00:33:44.923Z,96.78
2018-04-11T00:36:12.509Z,96.33
2018-04-11T00:38:40.142Z,96.16
2018-04-11T00:41:07.752Z,95.66
2018-04-11T00:43:35.435Z,95.71
2018-04-11T00:46:03.056Z,96.04
2018-04-11T00:48:30.651Z,96.36
2018-04-11T00:50:58.285Z,96.39
2018-04-11T00:53:28.646Z,96.34
2018-04-11T00:55:56.289Z,96.39
2018-04-11T00:58:23.884Z,95.93
2018-04-11T01:00:51.496Z,95.66
2018-04-11T01:03:19.088Z,95.87
2018-04-11T01:05:46.729Z,96.28
2018-04-11T01:08:14.331Z,96.03
2018-04-11T01:10:42.116Z,95.47
2018-04-11T01:13:09.752Z,96.22
2018-04-11T01:15:37.421Z,96.94
2018-04-11T01:18:05.100Z,97.56
2018-04-11T01:20:32.887Z,97.63
2018-04-11T01:23:00.679Z,97.49
2018-04-11T01:25:28.380Z,97.37
2018-04-11T01:27:56.068Z,97.29
2018-04-11T01:30:31.478Z,97.32
2018-04-11T01:32:59.137Z,97.32
2018-04-11T01:35:26.812Z,96.71
2018-04-11T01:37:54.756Z,96.36
2018-04-11T01:40:22.510Z,96.18
2018-04-11T01:42:50.304Z,97.07
2018-04-11T01:45:17.988Z,97.37
2018-04-11T01:47:45.760Z,97.57
2018-04-11T01:50:13.348Z,97.50
2018-04-11T01:52:41.098Z,97.70
2018-04-11T01:55:08.699Z,98.09
2018-04-11T01:57:36.337Z,98.29
2018-04-11T02:00:03.925Z,98.56
2018-04-11T02:02:31.561Z,99.47
2018-04-11T02:04:59.379Z,100.00
2018-04-11T02:07:27.081Z,100.00
2018-04-11T02:09:54.719Z,100.00
2018-04-11T02:12:22.441Z,100.00
2018-04-11T02:14:50.280Z,100.00
2018-04-11T02:17:18.032Z,100.00
2018-04-11T02:19:45.714Z,100.00
2018-04-11T02:22:13.449Z,99.58
2018-04-11T02:24:41.146Z,98.36
2018-04-11T02:27:08.849Z,97.54
2018-04-11T02:29:36.566Z,97.20
2018-04-11T02:32:04.312Z,96.82
2018-04-11T02:34:31.934Z,96.51
2018-04-11T02:36:59.577Z,96.64
2018-04-11T02:39:27.295Z,96.51
2018-04-11T02:41:54.883Z,96.73
2018-04-11T02:44:22.670Z,97.04
2018-04-11T02:46:50.276Z,97.15
2018-04-11T02:49:18.180Z,97.00
2018-04-11T02:51:45.916Z,97.16
2018-04-11T02:54:13.653Z,97.57
2018-04-11T02:56:41.281Z,97.98
2018-04-11T02:59:08.945Z,97.66
2018-04-11T03:01:36.614Z,96.94
2018-04-11T03:04:04.428Z,96.66
2018-04-11T03:06:32.073Z,96.35
2018-04-11T03:08:59.737Z,96.45
2018-04-11T03:11:27.416Z,96.55
2018-04-11T03:13:55.069Z,96.52
2018-04-11T03:16:23.023Z,96.78
2018-04-11T03:18:50.867Z,97.10
2018-04-11T03:21:18.557Z,97.46
2018-04-11T03:23:46.213Z,98.01
2018-04-11T03:26:13.967Z,98.52
2018-04-11T03:28:41.651Z,98.66
2018-04-11T03:31:09.409Z,98.50
2018-04-11T03:33:37.026Z,98.32
2018-04-11T03:36:04.676Z,97.46
2018-04-11T03:38:32.358Z,96.67
2018-04-11T03:40:59.993Z,96.70
2018-04-11T03:43:27.791Z,97.11
2018-04-11T03:45:55.475Z,97.42
2018-04-11T03:48:23.089Z,97.76
2018-04-11T03:50:50.761Z,98.43
2018-04-11T03:53:18.427Z,98.74
2018-04-11T03:55:46.177Z,98.96
2018-04-11T03:58:13.792Z,99.05
2018-04-11T04:00:41.469Z,98.94
2018-04-11T04:03:09.122Z,98.70
2018-04-11T04:05:36.760Z,96.76
2018-04-11T04:08:04.442Z,96.94
2018-04-11T04:10:32.054Z,96.86
2018-04-11T04:12:59.726Z,97.57
2018-04-11T04:15:38.896Z,98.54
2018-04-11T04:18:18.230Z,99.42
2018-04-11T04:20:45.889Z,100.00
2018-04-11T04:23:13.548Z,100.00
2018-04-11T04:25:41.166Z,100.00
2018-04-11T04:28:08.825Z,99.71
2018-04-11T04:30:36.437Z,99.73
2018-04-11T04:33:05.832Z,99.78
2018-04-11T04:35:33.626Z,99.91
2018-04-11T04:38:01.299Z,100.00
2018-04-11T04:40:28.909Z,99.96
2018-04-11T04:42:56.606Z,99.82
2018-04-11T04:45:24.315Z,99.30
2018-04-11T04:47:52.008Z,99.46
2018-04-11T04:50:19.676Z,99.92
2018-04-11T04:52:47.406Z,100.00
2018-04-11T04:55:15.037Z,100.00
2018-04-11T04:57:42.677Z,100.00
2018-04-11T05:00:10.367Z,99.74
2018-04-11T05:02:38.034Z,99.75
2018-04-11T05:05:05.745Z,100.00
2018-04-11T05:07:33.362Z,99.94
2018-04-11T05:10:01.011Z,100.00
2018-04-11T05:12:28.668Z,100.00
2018-04-11T05:14:56.330Z,100.00
2018-04-11T05:17:24.100Z,100.00
2018-04-11T05:19:51.750Z,100.00
2018-04-11T05:22:19.364Z,100.00
2018-04-11T05:24:47.446Z,100.00
2018-04-11T05:27:15.636Z,100.00
2018-04-11T05:29:43.712Z,100.00
2018-04-11T05:32:11.868Z,100.00
2018-04-11T05:34:40.861Z,100.00
2018-04-11T05:37:09.006Z,100.00
2018-04-11T05:39:37.502Z,100.00
2018-04-11T05:42:06.305Z,100.00
2018-04-11T05:44:34.697Z,100.00
2018-04-11T05:52:45.947Z,100.00
2018-04-11T05:55:18.996Z,99.06
2018-04-11T06:02:21.969Z,98.22
2018-04-11T06:04:56.753Z,97.53
2018-04-11T06:07:25.490Z,96.44
2018-04-11T06:09:53.186Z,96.18
2018-04-11T06:12:20.880Z,96.20
2018-04-11T06:14:48.535Z,96.19
2018-04-11T06:17:16.225Z,96.04
2018-04-11T06:19:43.857Z,95.83
2018-04-11T06:22:11.565Z,96.05
2018-04-11T06:24:39.194Z,96.83
2018-04-11T06:27:06.896Z,97.32
2018-04-11T06:29:34.535Z,97.48
2018-04-11T06:32:02.229Z,96.60
2018-04-11T06:34:29.855Z,95.55
2018-04-11T06:36:57.506Z,94.91
2018-04-11T06:39:25.154Z,94.45
2018-04-11T06:41:52.837Z,93.66
2018-04-11T06:44:20.452Z,93.57
2018-04-11T06:46:48.101Z,93.51
2018-04-11T06:49:15.773Z,92.83
2018-04-11T06:51:43.381Z,92.98
2018-04-11T06:54:11.051Z,93.14
2018-04-11T06:56:38.690Z,93.03
2018-04-11T06:59:06.346Z,93.28
2018-04-11T07:01:33.940Z,93.24
2018-04-11T07:04:01.600Z,93.22
2018-04-11T07:06:29.203Z,93.59
2018-04-11T07:08:56.862Z,95.26
2018-04-11T07:11:24.497Z,96.17
2018-04-11T07:13:52.163Z,96.66
2018-04-11T07:16:19.794Z,97.11
2018-04-11T07:18:47.607Z,97.61
2018-04-11T07:21:15.227Z,97.50
2018-04-11T07:23:42.881Z,97.71
2018-04-11T07:26:10.478Z,97.80
2018-04-11T07:28:38.077Z,97.81
2018-04-11T07:31:05.729Z,97.09
2018-04-11T07:33:33.309Z,96.75
2018-04-11T07:36:01.051Z,96.68
2018-04-11T07:38:28.717Z,96.37
2018-04-11T07:40:56.344Z,95.08
2018-04-11T07:43:23.954Z,94.45
2018-04-11T07:45:51.744Z,95.62
2018-04-11T07:48:19.368Z,96.60
2018-04-11T07:50:47.069Z,97.85
2018-04-11T07:53:14.746Z,98.17
2018-04-11T07:55:42.392Z,98.12
2018-04-11T07:58:09.992Z,97.47
2018-04-11T08:00:37.651Z,95.97
2018-04-11T08:03:05.472Z,95.76
2018-04-11T08:05:33.123Z,95.19
2018-04-11T08:08:00.800Z,95.27
2018-04-11T08:10:28.413Z,95.29
2018-04-11T08:12:56.075Z,95.29
2018-04-11T08:15:23.703Z,95.92
2018-04-11T08:17:51.341Z,96.78
2018-04-11T08:20:18.957Z,97.03
2018-04-11T08:22:46.642Z,97.39
2018-04-11T08:25:14.268Z,97.99
2018-04-11T08:27:41.993Z,98.29
2018-04-11T08:30:09.730Z,99.01
2018-04-11T08:32:37.648Z,98.26
2018-04-11T08:35:05.313Z,97.67
2018-04-11T08:37:33.051Z,97.17
2018-04-11T08:40:00.711Z,97.37
2018-04-11T08:42:28.356Z,97.20
2018-04-11T08:44:55.985Z,97.49
2018-04-11T08:47:23.718Z,97.97
2018-04-11T08:49:51.294Z,98.38
2018-04-11T08:52:18.916Z,98.53
2018-04-11T08:54:46.581Z,97.90
2018-04-11T08:57:14.211Z,99.04
2018-04-11T08:59:41.941Z,99.54
2018-04-11T09:02:09.558Z,99.46
2018-04-11T09:04:37.240Z,98.93
2018-04-11T09:07:04.861Z,98.73
2018-04-11T09:09:32.525Z,98.49
2018-04-11T09:12:00.222Z,98.30
2018-04-11T09:14:27.928Z,98.21
2018-04-11T09:16:55.547Z,97.89
2018-04-11T09:19:23.391Z,97.81
2018-04-11T09:21:51.052Z,96.71
2018-04-11T09:24:18.725Z,96.45
2018-04-11T09:26:46.369Z,96.00
2018-04-11T09:29:14.092Z,96.31
2018-04-11T09:31:41.879Z,96.41
2018-04-11T09:34:09.542Z,97.83
2018-04-11T09:36:37.252Z,98.32
2018-04-11T09:39:05.500Z,98.66
2018-04-11T09:41:33.192Z,98.51
2018-04-11T09:44:00.811Z,98.91
2018-04-11T09:46:28.514Z,98.69
2018-04-11T09:48:56.160Z,98.59
2018-04-11T09:51:23.885Z,99.34
2018-04-11T09:53:51.488Z,99.85
2018-04-11T09:56:19.160Z,100.00
2018-04-11T09:58:46.774Z,100.00
2018-04-11T10:01:18.263Z,100.00
2018-04-11T10:03:45.873Z,100.00
2018-04-11T10:06:13.514Z,100.00
2018-04-11T10:08:41.129Z,100.00
2018-04-11T10:11:09.123Z,100.00
2018-04-11T10:13:36.762Z,100.00
2018-04-11T10:16:04.417Z,100.00
2018-04-11T10:18:32.188Z,100.00
2018-04-11T10:20:59.901Z,100.00
2018-04-11T10:23:27.524Z,100.00
2018-04-11T10:25:55.404Z,100.00
2018-04-11T10:28:23.012Z,100.00
2018-04-11T10:30:50.730Z,100.00
2018-04-11T10:33:18.565Z,99.93
2018-04-11T10:35:46.178Z,99.95
2018-04-11T10:38:13.825Z,99.97
2018-04-11T10:40:41.430Z,99.87
2018-04-11T10:43:09.133Z,99.82
2018-04-11T10:45:36.768Z,99.86
2018-04-11T10:48:04.446Z,99.96
2018-04-11T10:50:32.090Z,99.98
2018-04-11T10:52:59.860Z,100.00
2018-04-11T10:55:27.464Z,99.92
2018-04-11T10:57:55.133Z,100.00
2018-04-11T11:00:22.766Z,100.00
2018-04-11T11:02:50.431Z,100.00
2018-04-11T11:05:18.054Z,100.00
2018-04-11T11:07:45.732Z,100.00
2018-04-11T11:10:13.332Z,100.00
2018-04-11T11:12:40.999Z,100.00
2018-04-11T11:15:08.652Z,100.00
2018-04-11T11:17:36.324Z,99.98
2018-04-11T11:20:04.011Z,100.00
2018-04-11T11:22:31.666Z,99.64
2018-04-11T11:24:59.354Z,99.68
2018-04-11T11:27:26.980Z,99.45
2018-04-11T11:29:54.646Z,99.66
2018-04-11T11:32:22.294Z,99.50
2018-04-11T11:34:49.945Z,99.40
2018-04-11T11:37:17.667Z,99.24
2018-04-11T11:39:45.384Z,99.46
2018-04-11T11:42:13.046Z,100.00
2018-04-11T11:44:40.774Z,100.00
2018-04-11T11:47:08.411Z,100.00
2018-04-11T11:49:36.222Z,99.51
2018-04-11T11:52:03.923Z,99.42
2018-04-11T11:54:31.714Z,99.16
2018-04-11T11:56:59.359Z,99.26
2018-04-11T11:59:27.043Z,99.16
2018-04-11T12:01:54.673Z,99.31
2018-04-11T12:04:22.444Z,98.59
2018-04-11T12:06:50.115Z,97.99
2018-04-11T12:09:17.828Z,98.35
2018-04-11T12:11:45.486Z,98.53
2018-04-11T12:14:13.194Z,98.06
2018-04-11T12:16:40.825Z,97.91
2018-04-11T12:19:08.535Z,98.06
2018-04-11T12:21:36.179Z,98.37
2018-04-11T12:24:03.974Z,98.60
2018-04-11T12:26:31.673Z,98.61
2018-04-11T12:28:59.315Z,99.10
2018-04-11T12:31:26.981Z,98.85
2018-04-11T12:33:54.738Z,98.50
2018-04-11T12:36:22.432Z,98.17
2018-04-11T12:38:50.069Z,98.01
2018-04-11T12:41:17.758Z,97.23
2018-04-11T12:43:45.418Z,97.30
2018-04-11T12:46:13.069Z,97.65
2018-04-11T12:48:40.724Z,97.35
2018-04-11T12:51:09.011Z,97.57
2018-04-11T12:53:36.663Z,98.09
2018-04-11T12:56:04.333Z,98.82
2018-04-11T12:58:32.060Z,98.58
2018-04-11T13:00:59.997Z,98.67
2018-04-11T13:03:27.392Z,98.82
2018-04-11T13:05:55.076Z,98.87
2018-04-11T13:08:22.747Z,99.59
2018-04-11T13:10:50.352Z,99.68
2018-04-11T13:13:17.993Z,99.60
2018-04-11T13:15:45.630Z,99.53
2018-04-11T13:18:13.377Z,99.14
2018-04-11T13:20:41.056Z,99.02
2018-04-11T13:23:08.695Z,98.58
2018-04-11T13:25:36.489Z,98.33
2018-04-11T13:28:04.081Z,98.34
2018-04-11T13:30:31.755Z,98.10
2018-04-11T13:32:59.411Z,98.00
2018-04-11T13:35:27.050Z,97.86
2018-04-11T13:37:54.711Z,98.12
2018-04-11T13:40:22.339Z,97.95
2018-04-11T13:42:50.134Z,98.13
2018-04-11T13:45:17.760Z,97.67
2018-04-11T13:47:45.403Z,97.29
2018-04-11T13:50:13.005Z,97.78
2018-04-11T13:52:40.658Z,97.59
2018-04-11T13:55:08.315Z,97.38
2018-04-11T13:57:35.997Z,97.08
2018-04-11T14:00:03.669Z,97.37
2018-04-11T14:02:31.325Z,97.67
2018-04-11T14:04:58.966Z,97.83
2018-04-11T14:07:26.603Z,97.87
2018-04-11T14:09:54.258Z,97.59
2018-04-11T14:12:21.904Z,97.81
2018-04-11T14:14:49.576Z,98.07
2018-04-11T14:17:17.237Z,97.87
2018-04-11T14:19:44.911Z,98.35
2018-04-11T14:22:12.520Z,98.32
2018-04-11T14:24:40.153Z,98.10
2018-04-11T14:27:07.869Z,97.83
2018-04-11T14:29:35.533Z,97.00
2018-04-11T14:32:03.151Z,96.13
2018-04-11T14:34:31.017Z,96.39
2018-04-11T14:36:58.712Z,97.04
2018-04-11T14:39:26.423Z,97.21
2018-04-11T14:41:54.047Z,97.17
2018-04-11T14:44:21.686Z,97.42
2018-04-11T14:46:49.344Z,96.57
2018-04-11T14:49:16.945Z,95.75
2018-04-11T14:51:44.592Z,95.00
2018-04-11T14:54:12.238Z,92.91
2018-04-11T14:56:39.934Z,92.88
2018-04-11T14:59:07.563Z,92.31
2018-04-11T15:01:35.237Z,92.74
2018-04-11T15:04:02.857Z,91.05
2018-04-11T15:06:30.517Z,91.82
2018-04-11T15:08:58.281Z,91.33
2018-04-11T15:11:25.937Z,90.82
2018-04-11T15:13:53.552Z,91.84
2018-04-11T15:16:21.209Z,88.13
2018-04-11T15:18:48.813Z,84.85
2018-04-11T15:21:16.579Z,83.76
2018-04-11T15:23:44.228Z,83.17
2018-04-11T15:26:11.822Z,83.30
2018-04-11T15:28:39.469Z,82.40
2018-04-11T15:31:07.085Z,81.57
2018-04-11T15:33:34.735Z,82.06
2018-04-11T15:36:02.336Z,80.83
2018-04-11T15:38:29.976Z,80.50
2018-04-11T15:40:57.634Z,79.41
2018-04-11T15:43:25.333Z,79.43
2018-04-11T15:45:52.945Z,79.28
2018-04-11T15:48:20.574Z,78.91
2018-04-11T15:50:48.217Z,78.72
2018-04-11T15:53:15.970Z,79.55
2018-04-11T15:55:43.682Z,81.06
2018-04-11T15:58:11.515Z,82.19
2018-04-11T16:00:39.100Z,83.00
2018-04-11T16:03:06.738Z,81.74
2018-04-11T16:05:34.325Z,82.67
2018-04-11T16:08:01.989Z,81.41
2018-04-11T16:10:29.705Z,80.08
2018-04-11T16:12:57.644Z,78.72
2018-04-11T16:15:25.309Z,78.67
2018-04-11T16:17:52.921Z,78.66
2018-04-11T16:20:20.560Z,79.03
2018-04-11T16:22:48.189Z,76.43
2018-04-11T16:25:15.827Z,74.92
2018-04-11T16:27:43.456Z,75.97
2018-04-11T16:30:11.127Z,76.20
2018-04-11T16:32:38.937Z,76.73
2018-04-11T16:35:06.598Z,77.22
2018-04-11T16:37:34.256Z,76.74
2018-04-11T16:40:01.934Z,75.19
2018-04-11T16:42:29.569Z,76.17
2018-04-11T16:44:57.259Z,77.71
2018-04-11T16:47:24.955Z,79.53
2018-04-11T16:49:52.586Z,80.34
2018-04-11T16:52:20.255Z,81.71
2018-04-11T16:54:47.866Z,82.23
2018-04-11T16:57:15.509Z,82.21
2018-04-11T16:59:43.210Z,81.99
2018-04-11T17:02:10.925Z,80.37
2018-04-11T17:04:38.547Z,80.19
2018-04-11T17:07:06.237Z,79.15
2018-04-11T17:09:34.087Z,78.26
2018-04-11T17:12:01.734Z,78.37
2018-04-11T17:14:29.394Z,78.77
2018-04-11T17:16:57.136Z,78.57
2018-04-11T17:19:24.803Z,78.48
2018-04-11T17:22:03.941Z,77.89
2018-04-11T17:24:43.193Z,78.39
2018-04-11T17:27:22.556Z,78.76
2018-04-11T17:30:01.803Z,78.99
2018-04-11T17:32:29.440Z,80.14
2018-04-11T17:34:57.098Z,80.76
2018-04-11T17:37:24.841Z,81.02
2018-04-11T17:39:52.510Z,81.35
2018-04-11T17:42:20.177Z,81.90
2018-04-11T17:44:47.784Z,82.91
2018-04-11T17:47:15.425Z,82.77
2018-04-11T17:49:43.026Z,82.77
2018-04-11T17:52:10.841Z,82.67
2018-04-11T17:54:38.453Z,82.39
2018-04-11T17:57:06.103Z,83.18
2018-04-11T17:59:33.785Z,83.67
2018-04-11T18:02:01.509Z,84.50
2018-04-11T18:04:29.147Z,85.09
2018-04-11T18:06:56.786Z,85.33
2018-04-11T18:09:24.461Z,85.71
2018-04-11T18:11:52.096Z,86.07
2018-04-11T18:14:19.837Z,86.42
2018-04-11T18:16:47.503Z,86.76
2018-04-11T18:19:15.206Z,87.03
2018-04-11T18:21:42.879Z,87.10
2018-04-11T18:24:10.522Z,87.21
2018-04-11T18:26:38.126Z,87.66
2018-04-11T18:29:05.770Z,87.76
2018-04-11T18:31:33.381Z,87.79
2018-04-11T18:34:01.080Z,87.64
2018-04-11T18:36:28.689Z,87.60
2018-04-11T18:38:56.398Z,87.33
2018-04-11T18:41:24.071Z,87.06
2018-04-11T18:43:51.721Z,86.94
2018-04-11T18:46:19.363Z,86.90
2018-04-11T18:48:46.954Z,86.82
2018-04-11T18:51:14.593Z,86.72
2018-04-11T18:53:42.221Z,86.92
2018-04-11T18:56:10.710Z,86.78
2018-04-11T18:58:38.330Z,86.71
2018-04-11T19:01:06.029Z,86.53
2018-04-11T19:03:33.655Z,86.31
2018-04-11T19:06:01.302Z,86.38
2018-04-11T19:08:29.024Z,86.56
2018-04-11T19:10:56.647Z,86.75
2018-04-11T19:13:24.298Z,86.84
2018-04-11T19:15:51.896Z,86.81
2018-04-11T19:18:19.473Z,87.35
2018-04-11T19:20:47.104Z,88.38
2018-04-11T19:23:14.717Z,87.89
2018-04-11T19:25:42.659Z,86.64
2018-04-11T19:28:10.270Z,85.84
2018-04-11T19:30:37.914Z,85.11
2018-04-11T19:33:05.575Z,84.43
2018-04-11T19:35:33.215Z,83.39
2018-04-11T19:38:00.939Z,81.98
2018-04-11T19:40:28.572Z,82.51
2018-04-11T19:42:56.243Z,83.36
2018-04-11T19:45:23.849Z,84.07
2018-04-11T19:47:51.561Z,84.83
2018-04-11T19:50:19.182Z,85.46
2018-04-11T19:52:46.848Z,86.11
2018-04-11T19:55:14.501Z,86.32
2018-04-11T19:57:42.194Z,86.66
2018-04-11T20:00:09.838Z,86.87
2018-04-11T20:02:37.497Z,86.90
2018-04-11T20:05:05.125Z,87.06
2018-04-11T20:07:32.833Z,87.16
2018-04-11T20:10:00.443Z,87.49
2018-04-11T20:12:28.110Z,87.16
2018-04-11T20:14:55.742Z,87.38
2018-04-11T20:17:23.421Z,87.93
2018-04-11T20:19:51.069Z,88.40
2018-04-11T20:22:18.711Z,88.55
2018-04-11T20:24:46.427Z,88.60
2018-04-11T20:27:14.170Z,88.91
2018-04-11T20:29:41.941Z,88.74
2018-04-11T20:32:09.608Z,89.16
2018-04-11T20:34:37.307Z,89.49
2018-04-11T20:37:05.071Z,89.66
2018-04-11T20:39:32.740Z,89.35
2018-04-11T20:42:00.493Z,89.44
2018-04-11T20:44:28.240Z,89.56
2018-04-11T20:46:55.946Z,89.94
2018-04-11T20:49:23.588Z,90.13
2018-04-11T20:51:51.270Z,89.98
2018-04-11T20:54:19.021Z,90.17
2018-04-11T20:56:46.724Z,90.19
2018-04-11T20:59:14.694Z,90.41
2018-04-11T21:01:42.508Z,90.37
2018-04-11T21:04:10.117Z,90.41
2018-04-11T21:06:37.824Z,90.46
2018-04-11T21:09:05.518Z,90.59
2018-04-11T21:11:33.178Z,90.55
2018-04-11T21:14:00.785Z,90.39
2018-04-11T21:16:28.449Z,90.39
2018-04-11T21:18:56.113Z,90.55
2018-04-11T21:21:23.895Z,90.75
2018-04-11T21:23:51.547Z,90.43
2018-04-11T21:26:19.264Z,90.24
2018-04-11T21:28:46.968Z,90.04
2018-04-11T21:31:14.678Z,90.09
2018-04-11T21:33:42.322Z,90.15
2018-04-11T21:36:10.005Z,90.28
2018-04-11T21:38:37.609Z,90.25
2018-04-11T21:41:05.320Z,90.11
2018-04-11T21:43:32.969Z,90.18
2018-04-11T21:46:00.641Z,90.21
2018-04-11T21:48:28.292Z,90.18
2018-04-11T21:50:55.971Z,90.40
2018-04-11T21:53:23.601Z,90.23
2018-04-11T21:55:51.215Z,90.36
2018-04-11T21:58:18.869Z,90.47
2018-04-11T22:00:46.507Z,90.66
2018-04-11T22:03:14.190Z,90.57
2018-04-11T22:05:41.794Z,90.29
2018-04-11T22:08:09.435Z,90.36
2018-04-11T22:10:37.033Z,90.21
2018-04-11T22:13:04.695Z,90.27
2018-04-11T22:15:32.338Z,90.04
2018-04-11T22:18:00.070Z,89.94
2018-04-11T22:20:27.675Z,90.10
2018-04-11T22:22:55.333Z,90.21
2018-04-11T22:25:22.977Z,90.13
2018-04-11T22:27:50.622Z,90.41
2018-04-11T22:30:18.271Z,90.69
2018-04-11T22:32:45.965Z,90.67
2018-04-11T22:35:13.616Z,90.64
2018-04-11T22:37:41.265Z,90.19
2018-04-11T22:40:08.932Z,90.11
2018-04-11T22:42:36.585Z,89.95
2018-04-11T22:45:04.273Z,89.75
2018-04-11T22:47:31.971Z,89.54
2018-04-11T22:49:59.778Z,89.37
2018-04-11T22:52:27.413Z,89.47
2018-04-11T22:54:55.087Z,89.61
2018-04-11T22:57:22.710Z,89.46
2018-04-11T22:59:50.341Z,89.48
2018-04-11T23:02:17.966Z,89.46
2018-04-11T23:04:46.155Z,89.63
2018-04-11T23:07:13.973Z,89.73
2018-04-11T23:09:41.721Z,89.84
2018-04-11T23:12:17.312Z,89.93
2018-04-11T23:14:45.074Z,89.82
2018-04-11T23:17:13.163Z,89.86
2018-04-11T23:19:40.927Z,89.88
2018-04-11T23:22:08.854Z,89.99
2018-04-11T23:24:36.765Z,90.25
2018-04-11T23:27:04.549Z,90.23
2018-04-11T23:29:32.424Z,90.15
2018-04-11T23:32:00.205Z,89.99
2018-04-11T23:34:27.948Z,89.79
2018-04-11T23:36:55.786Z,90.14
2018-04-11T23:39:23.451Z,90.21
2018-04-11T23:41:51.203Z,90.25
2018-04-11T23:44:18.836Z,90.28
2018-04-11T23:46:46.924Z,90.37
2018-04-11T23:49:14.773Z,90.67
2018-04-11T23:51:42.512Z,90.64
2018-04-11T23:54:10.283Z,90.64
2018-04-11T23:56:38.023Z,90.95
2018-04-11T23:59:05.814Z,91.18
